createdAt,value
2022-12-13T00:00:31.105Z,0.00
2022-12-13T00:01:51.060Z,0.00
2022-12-13T00:02:29.794Z,0.00
2022-12-13T00:03:29.457Z,0.00
2022-12-13T00:04:29.806Z,0.00
2022-12-13T00:05:29.542Z,0.00
2022-12-13T00:06:29.747Z,0.00
2022-12-13T00:07:29.513Z,0.00
2022-12-13T00:08:29.807Z,0.00
2022-12-13T00:09:30.469Z,0.00
2022-12-13T00:10:29.311Z,0.00
2022-12-13T00:11:50.632Z,0.00
2022-12-13T00:12:30.862Z,0.00
2022-12-13T00:13:30.059Z,0.00
2022-12-13T00:14:29.437Z,0.00
2022-12-13T00:15:31.122Z,0.00
2022-12-13T00:16:29.518Z,0.00
2022-12-13T00:17:31.246Z,0.00
2022-12-13T00:18:29.490Z,0.00
2022-12-13T00:19:29.282Z,0.00
2022-12-13T00:20:29.521Z,0.00
2022-12-13T00:21:50.772Z,0.00
2022-12-13T00:22:29.573Z,0.00
2022-12-13T00:23:29.332Z,0.00
2022-12-13T00:24:29.592Z,0.00
2022-12-13T00:25:29.366Z,0.00
2022-12-13T00:26:30.536Z,0.00
2022-12-13T00:27:30.812Z,0.00
2022-12-13T00:28:29.121Z,0.00
2022-12-13T00:29:29.364Z,0.00
2022-12-13T00:30:29.151Z,0.00
2022-12-13T00:31:59.411Z,0.00
2022-12-13T00:32:31.551Z,0.00
2022-12-13T00:33:29.381Z,0.00
2022-12-13T00:34:29.115Z,0.00
2022-12-13T00:35:29.372Z,0.00
2022-12-13T00:36:29.104Z,0.00
2022-12-13T00:37:29.374Z,0.00
2022-12-13T00:38:29.117Z,0.00
2022-12-13T00:39:30.081Z,0.00
2022-12-13T00:40:29.175Z,0.00
2022-12-13T00:41:49.440Z,0.00
2022-12-13T00:42:29.164Z,0.00
2022-12-13T00:43:29.431Z,0.00
2022-12-13T00:44:29.183Z,0.00
2022-12-13T00:45:28.929Z,0.00
2022-12-13T00:46:29.291Z,0.00
2022-12-13T00:47:28.921Z,0.00
2022-12-13T00:48:29.261Z,0.00
2022-12-13T00:49:28.945Z,0.00
2022-12-13T00:50:29.175Z,0.00
2022-12-13T00:51:48.963Z,0.00
2022-12-13T00:52:30.635Z,0.00
2022-12-13T00:53:30.955Z,0.00
2022-12-13T00:54:29.213Z,0.00
2022-12-13T00:55:29.000Z,0.00
2022-12-13T00:56:29.247Z,0.00
2022-12-13T00:57:28.972Z,0.00
2022-12-13T00:58:29.237Z,0.00
2022-12-13T00:59:28.994Z,0.00
2022-12-13T01:00:29.215Z,0.00
2022-12-13T01:01:49.046Z,0.00
2022-12-13T01:02:29.253Z,0.00
2022-12-13T01:03:29.055Z,0.00
2022-12-13T01:04:28.733Z,0.00
2022-12-13T01:06:04.075Z,0.00
2022-12-13T01:06:31.207Z,0.00
2022-12-13T01:07:29.047Z,0.00
2022-12-13T01:08:28.903Z,0.00
2022-12-13T01:09:29.082Z,0.00
2022-12-13T01:10:28.819Z,0.00
2022-12-13T01:11:49.112Z,0.00
2022-12-13T01:12:28.874Z,0.00
2022-12-13T01:13:29.091Z,0.00
2022-12-13T01:14:28.816Z,0.00
2022-12-13T01:15:29.103Z,0.00
2022-12-13T01:16:28.874Z,0.00
2022-12-13T01:17:29.074Z,0.00
2022-12-13T01:18:28.814Z,0.00
2022-12-13T01:19:29.605Z,0.00
2022-12-13T01:20:28.811Z,0.00
2022-12-13T01:21:49.077Z,0.00
2022-12-13T01:22:28.819Z,0.00
2022-12-13T01:23:28.575Z,0.00
2022-12-13T01:24:28.843Z,0.00
2022-12-13T01:25:28.611Z,0.00
2022-12-13T01:26:28.838Z,0.00
2022-12-13T01:27:28.646Z,0.00
2022-12-13T01:28:28.885Z,0.00
2022-12-13T01:29:28.680Z,0.00
2022-12-13T01:30:28.916Z,0.00
2022-12-13T01:31:48.716Z,0.00
2022-12-13T01:32:28.937Z,0.00
2022-12-13T01:33:28.701Z,0.00
2022-12-13T01:34:28.991Z,0.00
2022-12-13T01:35:28.759Z,0.00
2022-12-13T01:36:28.621Z,0.00
2022-12-13T01:37:28.766Z,0.00
2022-12-13T01:38:28.535Z,0.00
2022-12-13T01:39:28.827Z,0.00
2022-12-13T01:40:28.568Z,0.00
2022-12-13T01:41:48.817Z,0.00
2022-12-13T01:42:28.536Z,0.00
2022-12-13T01:43:28.791Z,0.00
2022-12-13T01:44:28.548Z,0.00
2022-12-13T01:45:28.811Z,0.00
2022-12-13T01:46:28.622Z,0.00
2022-12-13T01:47:28.806Z,0.00
2022-12-13T01:48:28.545Z,0.00
2022-12-13T01:49:28.813Z,0.00
2022-12-13T01:50:28.560Z,0.00
2022-12-13T01:51:48.842Z,0.00
2022-12-13T01:52:28.576Z,0.00
2022-12-13T01:53:28.324Z,0.00
2022-12-13T01:54:34.080Z,0.00
2022-12-13T01:55:29.330Z,0.00
2022-12-13T01:56:28.590Z,0.00
2022-12-13T01:57:28.349Z,0.00
2022-12-13T01:58:29.121Z,0.00
2022-12-13T01:59:28.365Z,0.00
2022-12-13T02:00:28.628Z,0.00
2022-12-13T02:01:48.407Z,0.00
2022-12-13T02:02:28.619Z,0.00
2022-12-13T02:03:28.361Z,0.00
2022-12-13T02:04:30.061Z,0.00
2022-12-13T02:05:28.441Z,0.00
2022-12-13T02:06:28.644Z,0.00
2022-12-13T02:07:28.371Z,0.00
2022-12-13T02:08:28.705Z,0.00
2022-12-13T02:09:28.359Z,0.00
2022-12-13T02:10:29.134Z,0.00
2022-12-13T02:11:48.390Z,0.00
2022-12-13T02:12:29.463Z,0.00
2022-12-13T02:13:28.358Z,0.00
2022-12-13T02:14:28.151Z,0.00
2022-12-13T02:15:28.398Z,0.00
2022-12-13T02:16:28.231Z,0.00
2022-12-13T02:17:28.420Z,0.00
2022-12-13T02:18:28.178Z,0.00
2022-12-13T02:19:28.457Z,0.00
2022-12-13T02:20:28.225Z,0.00
2022-12-13T02:21:48.480Z,0.00
2022-12-13T02:22:28.200Z,0.00
2022-12-13T02:23:28.467Z,0.00
2022-12-13T02:24:28.188Z,0.00
2022-12-13T02:25:28.750Z,0.00
2022-12-13T02:26:28.190Z,0.00
2022-12-13T02:27:30.338Z,0.00
2022-12-13T02:28:31.696Z,0.00
2022-12-13T02:29:30.983Z,0.00
2022-12-13T02:30:28.191Z,0.00
2022-12-13T02:31:48.446Z,0.00
2022-12-13T02:32:28.209Z,0.00
2022-12-13T02:33:27.977Z,0.00
2022-12-13T02:34:28.218Z,0.00
2022-12-13T02:35:30.977Z,0.00
2022-12-13T02:36:28.221Z,0.00
2022-12-13T02:37:29.300Z,0.00
2022-12-13T02:38:28.327Z,0.00
2022-12-13T02:39:29.741Z,0.00
2022-12-13T02:40:28.212Z,0.00
2022-12-13T02:41:47.997Z,0.00
2022-12-13T02:42:28.212Z,0.00
2022-12-13T02:43:33.563Z,0.00
2022-12-13T02:44:29.663Z,0.00
2022-12-13T02:45:29.561Z,0.00
2022-12-13T02:46:28.651Z,0.00
2022-12-13T02:47:29.686Z,0.00
2022-12-13T02:48:29.451Z,0.00
2022-12-13T02:49:29.348Z,0.00
2022-12-13T02:50:28.658Z,0.00
2022-12-13T02:51:47.996Z,0.00
2022-12-13T02:52:29.731Z,0.00
2022-12-13T02:53:29.031Z,0.00
2022-12-13T02:54:29.363Z,0.00
2022-12-13T02:55:29.691Z,0.00
2022-12-13T02:56:28.655Z,0.00
2022-12-13T02:57:28.501Z,0.00
2022-12-13T02:58:29.555Z,0.00
2022-12-13T02:59:28.052Z,0.00
2022-12-13T03:00:28.682Z,0.00
2022-12-13T03:01:48.072Z,0.00
2022-12-13T03:02:31.423Z,0.00
2022-12-13T03:03:28.214Z,0.00
2022-12-13T03:04:27.980Z,0.00
2022-12-13T03:05:29.279Z,0.00
2022-12-13T03:06:34.168Z,0.00
2022-12-13T03:07:29.688Z,0.00
2022-12-13T03:08:29.314Z,0.00
2022-12-13T03:09:29.168Z,0.00
2022-12-13T03:10:29.523Z,0.00
2022-12-13T03:11:48.031Z,0.00
2022-12-13T03:12:29.278Z,0.00
2022-12-13T03:13:29.223Z,0.00
2022-12-13T03:14:31.641Z,0.00
2022-12-13T03:15:30.918Z,0.00
2022-12-13T03:16:29.273Z,0.00
2022-12-13T03:17:29.093Z,0.00
2022-12-13T03:18:28.180Z,0.00
2022-12-13T03:19:29.328Z,0.00
2022-12-13T03:20:28.701Z,0.00
2022-12-13T03:21:48.631Z,0.00
2022-12-13T03:22:28.831Z,0.00
2022-12-13T03:23:29.214Z,0.00
2022-12-13T03:24:28.070Z,0.00
2022-12-13T03:25:31.479Z,0.00
2022-12-13T03:26:27.598Z,0.00
2022-12-13T03:27:27.915Z,0.00
2022-12-13T03:28:27.802Z,0.00
2022-12-13T03:29:28.912Z,0.00
2022-12-13T03:30:27.796Z,0.00
2022-12-13T03:31:47.620Z,0.00
2022-12-13T03:32:27.871Z,0.00
2022-12-13T03:33:27.581Z,0.00
2022-12-13T03:34:43.591Z,0.00
2022-12-13T03:35:34.935Z,0.00
2022-12-13T03:36:28.429Z,0.00
2022-12-13T03:37:27.788Z,0.00
2022-12-13T03:38:27.492Z,0.00
2022-12-13T03:39:27.800Z,0.00
2022-12-13T03:40:28.251Z,0.00
2022-12-13T03:41:47.890Z,0.00
2022-12-13T03:42:27.643Z,0.00
2022-12-13T03:43:27.413Z,0.00
2022-12-13T03:44:31.465Z,0.00
2022-12-13T03:45:27.427Z,0.00
2022-12-13T03:46:29.152Z,0.00
2022-12-13T03:47:28.858Z,0.00
2022-12-13T03:48:27.701Z,0.00
2022-12-13T03:49:35.635Z,0.00
2022-12-13T03:50:28.194Z,0.00
2022-12-13T03:51:47.468Z,0.00
2022-12-13T03:52:28.639Z,0.00
2022-12-13T03:53:34.187Z,0.00
2022-12-13T03:54:28.206Z,0.00
2022-12-13T03:55:28.178Z,0.00
2022-12-13T03:56:27.397Z,0.00
2022-12-13T03:57:27.537Z,0.00
2022-12-13T03:58:36.473Z,0.00
2022-12-13T03:59:30.000Z,0.00
2022-12-13T04:00:29.299Z,0.00
2022-12-13T04:01:47.610Z,0.00
2022-12-13T04:02:31.060Z,0.00
2022-12-13T04:03:27.609Z,0.00
2022-12-13T04:04:27.388Z,0.00
2022-12-13T04:05:29.006Z,0.00
2022-12-13T04:06:32.634Z,0.00
2022-12-13T04:07:34.383Z,0.00
2022-12-13T04:08:28.359Z,0.00
2022-12-13T04:09:27.043Z,0.00
2022-12-13T04:10:28.758Z,0.00
2022-12-13T04:11:47.100Z,0.00
2022-12-13T04:12:27.736Z,0.00
2022-12-13T04:13:27.074Z,0.00
2022-12-13T04:14:28.768Z,0.00
2022-12-13T04:15:27.086Z,0.00
2022-12-13T04:16:28.318Z,0.00
2022-12-13T04:17:27.078Z,0.00
2022-12-13T04:18:27.351Z,0.00
2022-12-13T04:19:27.819Z,0.00
2022-12-13T04:20:28.318Z,0.00
2022-12-13T04:21:47.131Z,0.00
2022-12-13T04:22:27.392Z,0.00
2022-12-13T04:23:27.491Z,0.00
2022-12-13T04:24:31.197Z,0.00
2022-12-13T04:25:29.575Z,0.00
2022-12-13T04:26:26.892Z,0.00
2022-12-13T04:27:28.600Z,0.00
2022-12-13T04:28:26.920Z,0.00
2022-12-13T04:29:33.719Z,0.00
2022-12-13T04:30:27.911Z,0.00
2022-12-13T04:31:47.188Z,0.00
2022-12-13T04:32:27.527Z,0.00
2022-12-13T04:33:28.088Z,0.00
2022-12-13T04:34:30.637Z,0.00
2022-12-13T04:35:29.589Z,0.00
2022-12-13T04:36:31.402Z,0.00
2022-12-13T04:37:28.184Z,0.00
2022-12-13T04:38:27.888Z,0.00
2022-12-13T04:39:27.210Z,0.00
2022-12-13T04:40:27.984Z,0.00
2022-12-13T04:41:47.259Z,0.00
2022-12-13T04:42:26.983Z,0.00
2022-12-13T04:43:26.717Z,0.00
2022-12-13T04:44:32.618Z,0.00
2022-12-13T04:45:27.771Z,0.00
2022-12-13T04:46:28.446Z,0.00
2022-12-13T04:47:26.767Z,0.00
2022-12-13T04:48:30.905Z,0.00
2022-12-13T04:49:26.765Z,0.00
2022-12-13T04:50:28.481Z,0.00
2022-12-13T04:51:47.596Z,0.00
2022-12-13T04:52:27.038Z,0.00
2022-12-13T04:53:26.771Z,0.00
2022-12-13T04:54:27.018Z,0.00
2022-12-13T04:55:28.188Z,0.00
2022-12-13T04:56:27.236Z,0.00
2022-12-13T04:57:26.787Z,0.00
2022-12-13T04:58:28.481Z,0.00
2022-12-13T04:59:26.800Z,0.00
2022-12-13T05:00:27.508Z,0.00
2022-12-13T05:01:46.825Z,0.00
2022-12-13T05:02:26.674Z,0.00
2022-12-13T05:03:26.840Z,0.00
2022-12-13T05:04:32.266Z,0.00
2022-12-13T05:05:27.874Z,0.00
2022-12-13T05:06:27.851Z,0.00
2022-12-13T05:07:26.901Z,0.00
2022-12-13T05:08:26.739Z,0.00
2022-12-13T05:09:26.920Z,0.00
2022-12-13T05:10:34.307Z,0.00
2022-12-13T05:11:47.921Z,0.00
2022-12-13T05:12:28.117Z,0.00
2022-12-13T05:13:26.407Z,0.00
2022-12-13T05:14:28.151Z,0.00
2022-12-13T05:15:26.424Z,0.00
2022-12-13T05:16:26.732Z,0.00
2022-12-13T05:17:26.421Z,0.00
2022-12-13T05:18:26.737Z,0.00
2022-12-13T05:19:30.776Z,0.00
2022-12-13T05:20:29.133Z,0.00
2022-12-13T05:21:46.443Z,0.00
2022-12-13T05:22:26.707Z,0.00
2022-12-13T05:23:26.435Z,0.00
2022-12-13T05:24:26.691Z,0.00
2022-12-13T05:25:26.431Z,0.00
2022-12-13T05:26:26.705Z,0.00
2022-12-13T05:27:27.022Z,0.00
2022-12-13T05:28:28.066Z,0.00
2022-12-13T05:29:26.470Z,0.00
2022-12-13T05:30:28.170Z,0.00
2022-12-13T05:31:47.033Z,0.00
2022-12-13T05:32:26.716Z,0.00
2022-12-13T05:33:26.460Z,0.00
2022-12-13T05:34:26.234Z,0.00
2022-12-13T05:35:26.467Z,0.00
2022-12-13T05:36:26.221Z,0.00
2022-12-13T05:37:27.290Z,0.00
2022-12-13T05:38:26.220Z,0.00
2022-12-13T05:39:28.582Z,0.00
2022-12-13T05:40:26.208Z,0.00
2022-12-13T05:41:46.462Z,0.00
2022-12-13T05:42:26.222Z,0.00
2022-12-13T05:43:41.988Z,0.00
2022-12-13T05:44:27.233Z,0.00
2022-12-13T05:45:26.483Z,0.00
2022-12-13T05:46:26.369Z,0.00
2022-12-13T05:47:27.952Z,0.00
2022-12-13T05:48:26.284Z,0.00
2022-12-13T05:49:27.314Z,0.00
2022-12-13T05:50:27.718Z,0.00
2022-12-13T05:51:48.069Z,0.00
2022-12-13T05:52:30.481Z,0.00
2022-12-13T05:53:30.578Z,0.00
2022-12-13T05:54:26.754Z,0.00
2022-12-13T05:55:26.765Z,0.00
2022-12-13T05:56:27.528Z,0.00
2022-12-13T05:57:27.832Z,0.00
2022-12-13T05:58:26.164Z,0.00
2022-12-13T05:59:27.421Z,0.00
2022-12-13T06:00:30.118Z,0.00
2022-12-13T06:01:47.285Z,0.00
2022-12-13T06:02:26.307Z,0.00
2022-12-13T06:03:26.113Z,0.00
2022-12-13T06:04:26.236Z,0.00
2022-12-13T06:05:25.983Z,0.00
2022-12-13T06:06:26.233Z,0.00
2022-12-13T06:07:25.985Z,0.00
2022-12-13T06:08:26.262Z,0.00
2022-12-13T06:09:25.988Z,0.00
2022-12-13T06:10:35.176Z,0.00
2022-12-13T06:11:48.458Z,0.00
2022-12-13T06:12:32.124Z,0.00
2022-12-13T06:13:31.904Z,0.00
2022-12-13T06:14:27.323Z,0.00
2022-12-13T06:15:26.295Z,0.00
2022-12-13T06:16:27.355Z,0.00
2022-12-13T06:17:26.053Z,0.00
2022-12-13T06:18:26.314Z,0.00
2022-12-13T06:19:26.049Z,0.00
2022-12-13T06:20:25.341Z,0.00
2022-12-13T06:21:46.533Z,0.00
2022-12-13T06:22:26.123Z,0.00
2022-12-13T06:23:25.842Z,0.00
2022-12-13T06:24:26.112Z,0.00
2022-12-13T06:25:31.412Z,0.00
2022-12-13T06:26:27.097Z,0.00
2022-12-13T06:27:25.837Z,0.00
2022-12-13T06:28:26.115Z,0.00
2022-12-13T06:29:26.162Z,0.00
2022-12-13T06:30:26.136Z,0.00
2022-12-13T06:31:47.370Z,0.00
2022-12-13T06:32:26.198Z,0.00
2022-12-13T06:33:25.930Z,0.00
2022-12-13T06:34:25.725Z,0.00
2022-12-13T06:35:30.402Z,0.00
2022-12-13T06:36:25.699Z,0.00
2022-12-13T06:37:25.934Z,0.00
2022-12-13T06:38:31.159Z,0.00
2022-12-13T06:39:26.941Z,0.00
2022-12-13T06:40:26.698Z,0.00
2022-12-13T06:41:46.799Z,1.00
2022-12-13T06:42:25.719Z,1.00
2022-12-13T06:43:25.969Z,1.00
2022-12-13T06:44:25.749Z,1.00
2022-12-13T06:45:25.972Z,1.00
2022-12-13T06:46:25.764Z,1.00
2022-12-13T06:47:31.946Z,1.00
2022-12-13T06:48:26.731Z,0.00
2022-12-13T06:49:25.995Z,0.00
2022-12-13T06:50:26.749Z,2.00
2022-12-13T06:51:47.450Z,2.00
2022-12-13T06:52:25.749Z,2.00
2022-12-13T06:53:25.512Z,0.00
2022-12-13T06:54:25.779Z,0.00
2022-12-13T06:55:25.549Z,0.00
2022-12-13T06:56:25.827Z,2.00
2022-12-13T06:57:25.566Z,1.00
2022-12-13T06:58:25.870Z,1.00
2022-12-13T06:59:25.611Z,15.00
2022-12-13T07:00:30.048Z,3.00
2022-12-13T07:01:50.700Z,2.00
2022-12-13T07:02:26.252Z,3.00
2022-12-13T07:03:25.626Z,4.00
2022-12-13T07:04:30.307Z,8.00
2022-12-13T07:05:26.632Z,6.00
2022-12-13T07:06:25.378Z,6.00
2022-12-13T07:07:25.626Z,8.00
2022-12-13T07:08:25.420Z,8.00
2022-12-13T07:09:25.618Z,10.00
2022-12-13T07:10:25.370Z,11.00
2022-12-13T07:11:51.412Z,14.00
2022-12-13T07:12:26.377Z,14.00
2022-12-13T07:13:25.621Z,17.00
2022-12-13T07:14:25.399Z,19.00
2022-12-13T07:15:25.665Z,20.00
2022-12-13T07:16:25.439Z,23.00
2022-12-13T07:17:32.333Z,25.00
2022-12-13T07:18:25.828Z,28.00
2022-12-13T07:19:26.221Z,32.00
2022-12-13T07:20:26.808Z,46.00
2022-12-13T07:21:44.832Z,39.00
2022-12-13T07:22:26.232Z,46.00
2022-12-13T07:23:25.816Z,58.00
2022-12-13T07:24:24.809Z,68.00
2022-12-13T07:25:28.368Z,84.00
2022-12-13T07:26:25.706Z,100.00
2022-12-13T07:27:25.324Z,110.00
2022-12-13T07:28:26.190Z,115.00
2022-12-13T07:29:26.192Z,133.00
2022-12-13T07:30:26.145Z,156.00
2022-12-13T07:31:46.151Z,178.00
2022-12-13T07:32:24.813Z,177.00
2022-12-13T07:33:24.836Z,198.00
2022-12-13T07:34:26.084Z,215.00
2022-12-13T07:35:25.627Z,238.00
2022-12-13T07:36:26.084Z,259.00
2022-12-13T07:37:30.396Z,270.00
2022-12-13T07:38:26.143Z,297.00
2022-12-13T07:39:25.387Z,317.00
2022-12-13T07:40:25.155Z,333.00
2022-12-13T07:41:46.890Z,335.00
2022-12-13T07:42:25.197Z,348.00
2022-12-13T07:43:25.436Z,358.00
2022-12-13T07:44:25.202Z,351.00
2022-12-13T07:45:25.433Z,357.00
2022-12-13T07:46:32.576Z,370.00
2022-12-13T07:47:26.424Z,383.00
2022-12-13T07:48:25.202Z,398.00
2022-12-13T07:49:25.437Z,413.00
2022-12-13T07:50:25.827Z,428.00
2022-12-13T07:51:46.978Z,458.00
2022-12-13T07:52:25.292Z,469.00
2022-12-13T07:53:25.034Z,491.00
2022-12-13T07:54:25.336Z,514.00
2022-12-13T07:55:33.091Z,545.00
2022-12-13T07:56:26.314Z,577.00
2022-12-13T07:57:25.043Z,601.00
2022-12-13T07:58:25.302Z,628.00
2022-12-13T07:59:28.530Z,652.00
2022-12-13T08:00:25.293Z,688.00
2022-12-13T08:01:46.632Z,734.00
2022-12-13T08:02:24.876Z,765.00
2022-12-13T08:03:28.880Z,811.00
2022-12-13T08:04:26.582Z,823.00
2022-12-13T08:05:27.478Z,856.00
2022-12-13T08:06:25.110Z,882.00
2022-12-13T08:07:24.823Z,935.00
2022-12-13T08:08:30.834Z,951.00
2022-12-13T08:09:25.847Z,985.00
2022-12-13T08:10:25.122Z,1019.00
2022-12-13T08:11:46.403Z,1083.00
2022-12-13T08:12:25.204Z,1129.00
2022-12-13T08:13:24.960Z,1193.00
2022-12-13T08:14:25.236Z,1293.00
2022-12-13T08:15:24.967Z,1336.00
2022-12-13T08:16:26.095Z,1406.00
2022-12-13T08:17:25.003Z,1429.00
2022-12-13T08:18:24.759Z,1481.00
2022-12-13T08:19:25.005Z,1491.00
2022-12-13T08:20:24.744Z,1498.00
2022-12-13T08:21:54.641Z,1491.00
2022-12-13T08:22:25.790Z,1489.00
2022-12-13T08:23:25.057Z,1477.00
2022-12-13T08:24:25.201Z,1460.00
2022-12-13T08:25:25.095Z,1547.00
2022-12-13T08:26:24.832Z,1711.00
2022-12-13T08:27:25.093Z,1791.00
2022-12-13T08:28:24.829Z,1872.00
2022-12-13T08:29:34.685Z,1901.00
2022-12-13T08:30:25.847Z,1940.00
2022-12-13T08:31:45.935Z,2028.00
2022-12-13T08:32:24.877Z,2078.00
2022-12-13T08:33:24.625Z,2146.00
2022-12-13T08:34:24.854Z,2194.00
2022-12-13T08:35:26.019Z,2129.00
2022-12-13T08:36:24.872Z,2140.00
2022-12-13T08:37:24.626Z,3289.00
2022-12-13T08:38:24.875Z,3922.00
2022-12-13T08:39:24.634Z,3900.00
2022-12-13T08:40:25.008Z,4028.00
2022-12-13T08:41:45.346Z,3302.00
2022-12-13T08:42:24.901Z,2690.00
2022-12-13T08:43:25.330Z,2752.00
2022-12-13T08:44:24.913Z,2769.00
2022-12-13T08:45:24.673Z,3042.00
2022-12-13T08:46:24.963Z,3394.00
2022-12-13T08:47:26.432Z,3552.00
2022-12-13T08:48:24.418Z,3260.00
2022-12-13T08:49:24.697Z,3079.00
2022-12-13T08:50:24.468Z,3459.00
2022-12-13T08:51:46.166Z,3659.00
2022-12-13T08:52:24.444Z,3410.00
2022-12-13T08:53:28.138Z,3857.00
2022-12-13T08:54:30.905Z,3947.00
2022-12-13T08:55:31.765Z,4231.00
2022-12-13T08:56:25.431Z,4644.00
2022-12-13T08:57:24.699Z,5027.00
2022-12-13T08:58:24.439Z,5105.00
2022-12-13T08:59:24.698Z,5735.00
2022-12-13T09:00:24.590Z,6185.00
2022-12-13T09:01:46.267Z,8415.00
2022-12-13T09:02:24.571Z,8504.00
2022-12-13T09:03:24.510Z,7450.00
2022-12-13T09:04:31.667Z,5287.00
2022-12-13T09:05:33.949Z,5907.00
2022-12-13T09:06:25.546Z,6419.00
2022-12-13T09:07:24.307Z,6447.00
2022-12-13T09:08:25.657Z,5136.00
2022-12-13T09:09:24.347Z,5748.00
2022-12-13T09:10:38.099Z,7698.00
2022-12-13T09:11:46.337Z,9806.00
2022-12-13T09:12:29.680Z,8891.00
2022-12-13T09:13:32.359Z,7170.00
2022-12-13T09:14:25.613Z,7326.00
2022-12-13T09:15:25.466Z,7770.00
2022-12-13T09:16:25.795Z,6946.00
2022-12-13T09:17:25.281Z,7591.00
2022-12-13T09:18:27.938Z,7020.00
2022-12-13T09:19:26.735Z,7400.00
2022-12-13T09:20:29.466Z,5231.00
2022-12-13T09:21:46.053Z,5074.00
2022-12-13T09:22:33.149Z,5343.00
2022-12-13T09:23:25.674Z,7869.00
2022-12-13T09:24:24.944Z,6728.00
2022-12-13T09:25:24.588Z,5893.00
2022-12-13T09:26:25.240Z,4759.00
2022-12-13T09:27:27.635Z,4393.00
2022-12-13T09:28:24.239Z,5318.00
2022-12-13T09:29:24.722Z,4981.00
2022-12-13T09:30:24.252Z,5391.00
2022-12-13T09:31:51.126Z,6133.00
2022-12-13T09:32:25.348Z,6976.00
2022-12-13T09:33:30.072Z,8583.00
2022-12-13T09:34:25.402Z,6921.00
2022-12-13T09:35:24.109Z,7794.00
2022-12-13T09:36:24.353Z,9026.00
2022-12-13T09:37:24.121Z,10039.00
2022-12-13T09:38:24.355Z,9994.00
2022-12-13T09:39:24.122Z,8473.00
2022-12-13T09:40:25.752Z,7351.00
2022-12-13T09:41:45.232Z,11387.00
2022-12-13T09:42:24.017Z,11509.00
2022-12-13T09:43:31.977Z,12195.00
2022-12-13T09:44:32.317Z,12636.00
2022-12-13T09:45:31.783Z,12344.00
2022-12-13T09:46:25.041Z,13114.00
2022-12-13T09:47:24.499Z,18046.00
2022-12-13T09:48:24.328Z,13340.00
2022-12-13T09:49:24.395Z,9988.00
2022-12-13T09:50:25.158Z,9753.00
2022-12-13T09:51:50.803Z,16892.00
2022-12-13T09:52:26.662Z,20632.00
2022-12-13T09:53:26.538Z,17677.00
2022-12-13T09:54:25.744Z,16084.00
2022-12-13T09:55:25.546Z,14829.00
2022-12-13T09:56:25.307Z,11936.00
2022-12-13T09:57:32.135Z,13442.00
2022-12-13T09:58:26.578Z,16163.00
2022-12-13T09:59:24.601Z,16368.00
2022-12-13T10:00:25.188Z,12856.00
2022-12-13T10:01:44.107Z,12916.00
2022-12-13T10:02:25.339Z,10661.00
2022-12-13T10:03:24.767Z,11078.00
2022-12-13T10:04:24.713Z,15217.00
2022-12-13T10:05:37.115Z,20853.00
2022-12-13T10:06:24.240Z,24130.00
2022-12-13T10:07:25.501Z,20392.00
2022-12-13T10:08:24.598Z,19296.00
2022-12-13T10:09:24.396Z,16160.00
2022-12-13T10:10:23.815Z,13486.00
2022-12-13T10:11:50.127Z,12620.00
2022-12-13T10:12:25.671Z,14817.00
2022-12-13T10:13:24.331Z,20657.00
2022-12-13T10:14:25.266Z,17305.00
2022-12-13T10:15:24.394Z,17546.00
2022-12-13T10:16:24.328Z,21519.00
2022-12-13T10:17:23.638Z,20980.00
2022-12-13T10:18:23.909Z,18760.00
2022-12-13T10:19:29.484Z,19896.00
2022-12-13T10:20:24.926Z,23633.00
2022-12-13T10:21:43.692Z,32128.00
2022-12-13T10:22:23.929Z,30156.00
2022-12-13T10:23:38.510Z,24219.00
2022-12-13T10:24:30.016Z,19049.00
2022-12-13T10:25:24.671Z,22862.00
2022-12-13T10:26:24.931Z,23764.00
2022-12-13T10:27:23.679Z,23002.00
2022-12-13T10:28:23.432Z,18038.00
2022-12-13T10:29:23.722Z,15746.00
2022-12-13T10:30:28.494Z,18959.00
2022-12-13T10:31:44.728Z,20912.00
2022-12-13T10:32:23.493Z,19000.00
2022-12-13T10:33:24.811Z,19005.00
2022-12-13T10:34:23.492Z,26007.00
2022-12-13T10:35:23.746Z,29632.00
2022-12-13T10:36:26.565Z,33970.00
2022-12-13T10:37:58.920Z,33519.00
2022-12-13T10:38:23.538Z,33180.00
2022-12-13T10:39:24.805Z,34489.00
2022-12-13T10:40:44.552Z,35798.00
2022-12-13T10:41:43.827Z,19583.00
2022-12-13T10:42:26.844Z,17686.00
2022-12-13T10:43:25.139Z,10873.00
2022-12-13T10:44:23.544Z,7938.00
2022-12-13T10:45:24.174Z,9548.00
2022-12-13T10:46:25.037Z,15548.00
2022-12-13T10:47:23.311Z,8976.00
2022-12-13T10:48:23.547Z,12116.00
2022-12-13T10:49:23.309Z,14362.00
2022-12-13T10:50:23.604Z,14612.00
2022-12-13T10:51:43.341Z,17126.00
2022-12-13T10:52:30.779Z,24046.00
2022-12-13T10:53:24.582Z,28082.00
2022-12-13T10:54:24.526Z,25513.00
2022-12-13T10:55:24.119Z,19328.00
2022-12-13T10:56:24.286Z,15359.00
2022-12-13T10:57:23.330Z,11474.00
2022-12-13T10:58:23.570Z,11049.00
2022-12-13T10:59:23.356Z,12730.00
2022-12-13T11:00:23.098Z,12165.00
2022-12-13T11:01:43.423Z,11327.00
2022-12-13T11:02:23.155Z,11997.00
2022-12-13T11:03:23.645Z,15442.00
2022-12-13T11:04:27.619Z,22023.00
2022-12-13T11:05:24.380Z,23048.00
2022-12-13T11:06:23.128Z,19411.00
2022-12-13T11:07:23.394Z,12839.00
2022-12-13T11:08:23.728Z,12114.00
2022-12-13T11:09:23.654Z,9728.00
2022-12-13T11:10:27.031Z,12152.00
2022-12-13T11:11:43.448Z,10033.00
2022-12-13T11:12:23.190Z,12611.00
2022-12-13T11:13:23.809Z,11118.00
2022-12-13T11:14:31.683Z,11158.00
2022-12-13T11:15:23.978Z,9355.00
2022-12-13T11:16:23.292Z,10204.00
2022-12-13T11:17:22.964Z,14826.00
2022-12-13T11:18:23.615Z,21060.00
2022-12-13T11:19:23.053Z,20380.00
2022-12-13T11:20:23.201Z,18033.00
2022-12-13T11:21:42.979Z,21373.00
2022-12-13T11:22:23.215Z,25637.00
2022-12-13T11:23:22.983Z,19548.00
2022-12-13T11:24:23.359Z,15247.00
2022-12-13T11:25:22.974Z,15027.00
2022-12-13T11:26:24.337Z,17952.00
2022-12-13T11:27:22.971Z,20102.00
2022-12-13T11:28:26.459Z,19894.00
2022-12-13T11:29:22.944Z,24078.00
2022-12-13T11:30:23.194Z,18633.00
2022-12-13T11:31:43.002Z,15013.00
2022-12-13T11:32:23.356Z,13865.00
2022-12-13T11:33:22.938Z,9958.00
2022-12-13T11:34:23.186Z,9069.00
2022-12-13T11:35:22.944Z,8844.00
2022-12-13T11:36:23.188Z,8783.00
2022-12-13T11:37:22.958Z,8821.00
2022-12-13T11:38:23.594Z,10262.00
2022-12-13T11:39:22.973Z,11935.00
2022-12-13T11:40:22.708Z,11365.00
2022-12-13T11:41:42.988Z,10595.00
2022-12-13T11:42:22.721Z,11858.00
2022-12-13T11:43:22.991Z,14399.00
2022-12-13T11:44:22.716Z,11121.00
2022-12-13T11:45:23.668Z,11181.00
2022-12-13T11:46:22.778Z,11214.00
2022-12-13T11:47:22.996Z,9834.00
2022-12-13T11:48:23.465Z,9098.00
2022-12-13T11:49:23.006Z,11609.00
2022-12-13T11:50:32.772Z,10668.00
2022-12-13T11:51:44.013Z,12148.00
2022-12-13T11:52:24.666Z,12374.00
2022-12-13T11:53:23.412Z,11896.00
2022-12-13T11:54:23.997Z,15549.00
2022-12-13T11:55:22.999Z,19042.00
2022-12-13T11:56:22.735Z,15716.00
2022-12-13T11:57:22.988Z,13844.00
2022-12-13T11:58:53.854Z,13764.00
2022-12-13T11:59:26.935Z,13839.00
2022-12-13T12:00:33.787Z,11531.00
2022-12-13T12:01:43.976Z,10548.00
2022-12-13T12:02:22.740Z,11020.00
2022-12-13T12:03:22.510Z,10859.00
2022-12-13T12:04:24.058Z,9976.00
2022-12-13T12:05:22.490Z,10523.00
2022-12-13T12:06:22.896Z,8261.00
2022-12-13T12:07:32.762Z,7691.00
2022-12-13T12:08:32.957Z,6974.00
2022-12-13T12:09:23.474Z,6633.00
2022-12-13T12:10:22.964Z,6279.00
2022-12-13T12:11:42.495Z,5793.00
2022-12-13T12:12:22.713Z,5558.00
2022-12-13T12:13:22.483Z,5642.00
2022-12-13T12:14:22.739Z,5532.00
2022-12-13T12:15:27.134Z,5594.00
2022-12-13T12:16:24.115Z,5547.00
2022-12-13T12:17:22.472Z,5368.00
2022-12-13T12:18:23.303Z,5807.00
2022-12-13T12:19:22.476Z,5951.00
2022-12-13T12:20:24.218Z,6610.00
2022-12-13T12:22:12.779Z,10153.00
2022-12-13T12:22:22.768Z,10158.00
2022-12-13T12:23:22.508Z,8354.00
2022-12-13T12:24:22.278Z,8067.00
2022-12-13T12:25:22.503Z,6538.00
2022-12-13T12:26:22.267Z,5908.00
2022-12-13T12:27:23.129Z,5727.00
2022-12-13T12:28:22.615Z,5726.00
2022-12-13T12:29:22.553Z,5610.00
2022-12-13T12:30:22.643Z,5693.00
2022-12-13T12:31:51.123Z,5765.00
2022-12-13T12:32:23.286Z,5707.00
2022-12-13T12:33:22.521Z,5884.00
2022-12-13T12:34:27.880Z,5662.00
2022-12-13T12:35:22.562Z,5570.00
2022-12-13T12:36:22.315Z,5370.00
2022-12-13T12:37:23.254Z,5280.00
2022-12-13T12:38:23.274Z,5158.00
2022-12-13T12:39:26.549Z,5094.00
2022-12-13T12:40:22.321Z,4740.00
2022-12-13T12:41:45.491Z,4370.00
2022-12-13T12:42:22.346Z,4249.00
2022-12-13T12:43:22.068Z,4144.00